TimeEST,TemperatureF,Dew PointF,Humidity,Sea Level PressureIn,VisibilityMPH,Wind Direction,Wind SpeedMPH,Gust SpeedMPH,PrecipitationIn,Events,Conditions,WindDirDegrees,DateUTC
12:15 AM,36.0,35.2,97,30.09,10.0,Calm,Calm,-,N/A,,Clear,0,2013-02-12 05:15:00
12:35 AM,35.8,34.9,97,30.08,10.0,Calm,Calm,-,N/A,,Clear,0,2013-02-12 05:35:00
12:55 AM,35.6,34.7,97,30.08,10.0,Calm,Calm,-,N/A,,Clear,0,2013-02-12 05:55:00
1:15 AM,34.7,33.6,96,30.08,10.0,Calm,Calm,-,N/A,,Clear,0,2013-02-12 06:15:00
1:35 AM,34.3,33.4,97,30.08,10.0,Calm,Calm,-,N/A,,Clear,0,2013-02-12 06:35:00
1:55 AM,34.2,33.3,97,30.08,10.0,Calm,Calm,-,N/A,,Clear,0,2013-02-12 06:55:00
2:15 AM,34.0,33.1,96,30.09,10.0,Calm,Calm,-,N/A,,Clear,0,2013-02-12 07:15:00
2:35 AM,34.9,34.0,97,30.09,10.0,Calm,Calm,-,N/A,,Clear,0,2013-02-12 07:35:00
2:55 AM,34.0,33.1,96,30.08,10.0,Calm,Calm,-,N/A,,Clear,0,2013-02-12 07:55:00
3:15 AM,33.8,32.7,96,30.08,10.0,Calm,Calm,-,N/A,,Clear,0,2013-02-12 08:15:00
3:35 AM,32.5,32.0,98,30.08,10.0,Calm,Calm,-,N/A,,Scattered Clouds,0,2013-02-12 08:35:00
3:55 AM,32.9,32.0,96,30.09,10.0,Calm,Calm,-,N/A,,Scattered Clouds,0,2013-02-12 08:55:00
4:15 AM,32.5,31.8,97,30.08,10.0,Calm,Calm,-,N/A,,Scattered Clouds,0,2013-02-12 09:15:00
4:35 AM,32.4,32.0,99,30.07,10.0,Calm,Calm,-,N/A,,Scattered Clouds,0,2013-02-12 09:35:00
4:55 AM,32.0,31.3,97,30.10,10.0,SW,3.5,-,N/A,,Scattered Clouds,230,2013-02-12 09:55:00
5:15 AM,31.6,30.9,97,30.08,10.0,Calm,Calm,-,N/A,,Scattered Clouds,0,2013-02-12 10:15:00
5:35 AM,30.9,30.4,98,30.08,10.0,WSW,3.5,-,N/A,,Clear,240,2013-02-12 10:35:00
6:15 AM,31.1,30.4,97,30.08,10.0,Calm,Calm,-,N/A,,Clear,0,2013-02-12 11:15:00
6:35 AM,31.1,30.2,96,30.08,10.0,West,3.5,-,N/A,,Clear,280,2013-02-12 11:35:00
6:55 AM,31.8,30.9,96,30.10,10.0,Calm,Calm,-,N/A,,Clear,0,2013-02-12 11:55:00
7:15 AM,30.9,29.7,95,30.11,10.0,Calm,Calm,-,N/A,,Clear,0,2013-02-12 12:15:00
7:35 AM,29.8,29.1,97,30.11,10.0,Calm,Calm,-,N/A,,Clear,0,2013-02-12 12:35:00
7:55 AM,30.2,29.7,98,30.12,10.0,Calm,Calm,-,N/A,,Clear,0,2013-02-12 12:55:00
8:15 AM,30.7,30.0,97,30.11,10.0,Calm,Calm,-,N/A,,Clear,0,2013-02-12 13:15:00
8:35 AM,31.6,30.9,97,30.12,10.0,Calm,Calm,-,N/A,,Clear,0,2013-02-12 13:35:00
8:55 AM,32.0,31.3,97,30.11,10.0,Calm,Calm,-,N/A,,Clear,0,2013-02-12 13:55:00
9:15 AM,35.4,34.0,94,30.11,10.0,Calm,Calm,-,N/A,,Clear,0,2013-02-12 14:15:00
9:35 AM,39.2,32.2,76,30.11,10.0,Calm,Calm,-,N/A,,Clear,0,2013-02-12 14:35:00
9:55 AM,42.6,31.5,65,30.09,10.0,Calm,Calm,-,N/A,,Clear,0,2013-02-12 14:55:00
10:15 AM,44.8,26.8,49,30.08,10.0,Calm,Calm,-,N/A,,Clear,0,2013-02-12 15:15:00
10:35 AM,46.4,24.8,43,30.08,10.0,Calm,Calm,-,N/A,,Clear,0,2013-02-12 15:35:00
10:55 AM,48.0,25.3,41,30.06,10.0,Calm,Calm,-,N/A,,Clear,0,2013-02-12 15:55:00
11:15 AM,49.1,19.6,31,30.07,10.0,Calm,Calm,-,N/A,,Clear,0,2013-02-12 16:15:00
11:35 AM,50.4,23.2,35,30.04,10.0,Calm,Calm,-,N/A,,Clear,0,2013-02-12 16:35:00
11:55 AM,50.9,23.0,34,30.06,10.0,Calm,Calm,-,N/A,,Clear,0,2013-02-12 16:55:00
12:15 PM,51.6,25.7,37,30.06,10.0,East,3.5,-,N/A,,Clear,90,2013-02-12 17:15:00
12:35 PM,51.4,26.1,37,30.05,10.0,NE,4.6,-,N/A,,Clear,50,2013-02-12 17:35:00
12:55 PM,51.8,24.1,34,30.03,10.0,NE,3.5,-,N/A,,Clear,40,2013-02-12 17:55:00
1:15 PM,52.0,23.5,33,30.02,10.0,Calm,Calm,-,N/A,,Clear,0,2013-02-12 18:15:00
1:35 PM,52.5,21.0,29,30.03,10.0,Calm,Calm,-,N/A,,Clear,0,2013-02-12 18:35:00
1:55 PM,52.7,20.8,29,30.01,10.0,Calm,Calm,-,N/A,,Clear,0,2013-02-12 18:55:00
2:15 PM,52.7,23.4,32,30.00,10.0,Calm,Calm,-,N/A,,Clear,0,2013-02-12 19:15:00
2:35 PM,52.3,21.7,30,30.00,10.0,Calm,Calm,-,N/A,,Clear,0,2013-02-12 19:35:00
2:55 PM,52.3,25.9,36,30.01,10.0,Calm,Calm,-,N/A,,Scattered Clouds,0,2013-02-12 19:55:00
3:15 PM,51.4,30.9,45,30.01,10.0,Calm,Calm,-,N/A,,Mostly Cloudy,0,2013-02-12 20:15:00
3:35 PM,51.4,30.4,44,30.01,10.0,Calm,Calm,-,N/A,,Overcast,0,2013-02-12 20:35:00
3:55 PM,49.8,35.6,58,30.01,10.0,Calm,Calm,-,N/A,,Overcast,0,2013-02-12 20:55:00
4:15 PM,48.7,35.2,60,29.99,10.0,Calm,Calm,-,N/A,,Overcast,0,2013-02-12 21:15:00
4:35 PM,49.1,36.0,61,29.99,10.0,Calm,Calm,-,N/A,,Overcast,0,2013-02-12 21:35:00
4:55 PM,49.1,35.8,60,29.99,10.0,Calm,Calm,-,N/A,,Overcast,0,2013-02-12 21:55:00
5:15 PM,48.2,37.6,67,29.95,10.0,Calm,Calm,-,N/A,,Overcast,0,2013-02-12 22:15:00
5:35 PM,46.9,39.6,76,29.92,10.0,Calm,Calm,-,N/A,,Mostly Cloudy,0,2013-02-12 22:35:00
5:55 PM,46.0,38.7,75,29.92,10.0,Calm,Calm,-,N/A,,Mostly Cloudy,0,2013-02-12 22:55:00
6:15 PM,45.5,38.3,76,29.94,10.0,Calm,Calm,-,N/A,Rain,Rain,0,2013-02-12 23:15:00
6:35 PM,44.6,39.7,83,29.95,10.0,Calm,Calm,-,0.01,Rain,Rain,0,2013-02-12 23:35:00
7:15 PM,42.4,41.2,95,29.97,10.0,Calm,Calm,-,0.02,Rain,Rain,0,2013-02-13 00:15:00
7:35 PM,42.3,41.2,96,29.97,10.0,Calm,Calm,-,0.03,Rain,Light Rain,0,2013-02-13 00:35:00
7:55 PM,42.1,40.6,95,29.95,7.0,Calm,Calm,-,0.06,Rain,Rain,0,2013-02-13 00:55:00
8:15 PM,41.5,41.0,98,29.96,10.0,WNW,3.5,-,0.01,Rain,Light Rain,290,2013-02-13 01:15:00
8:35 PM,41.4,40.5,97,29.96,10.0,Calm,Calm,-,0.02,Rain,Rain,0,2013-02-13 01:35:00
9:15 PM,41.0,40.1,97,29.96,10.0,Calm,Calm,-,N/A,,Overcast,0,2013-02-13 02:15:00
9:35 PM,41.0,40.3,97,29.95,10.0,Calm,Calm,-,N/A,,Light Drizzle,0,2013-02-13 02:35:00
9:55 PM,40.6,40.1,98,29.94,10.0,Calm,Calm,-,N/A,,Overcast,0,2013-02-13 02:55:00
10:15 PM,40.6,40.1,98,29.93,10.0,Calm,Calm,-,N/A,,Overcast,0,2013-02-13 03:15:00
10:35 PM,41.0,40.1,97,29.92,10.0,Calm,Calm,-,N/A,,Light Drizzle,0,2013-02-13 03:35:00
10:55 PM,40.6,40.1,98,29.91,7.0,Calm,Calm,-,0.02,Rain,Light Rain,0,2013-02-13 03:55:00
11:15 PM,40.8,40.1,97,29.92,7.0,Calm,Calm,-,0.01,Rain,Rain,0,2013-02-13 04:15:00
11:35 PM,40.3,39.7,98,29.90,1.8,Calm,Calm,-,0.14,,Overcast,0,2013-02-13 04:35:00
11:55 PM,40.1,39.6,98,29.89,4.0,Calm,Calm,-,0.20,Rain,Rain,0,2013-02-13 04:55:00